createdAt,value
2023-03-01T00:00:20.329Z,2.70
2023-03-01T00:00:47.880Z,2.70
2023-03-01T00:01:12.033Z,2.70
2023-03-01T00:01:34.884Z,2.80
2023-03-01T00:01:59.085Z,2.70
2023-03-01T00:02:21.927Z,2.70
2023-03-01T00:02:44.765Z,2.80
2023-03-01T00:03:07.637Z,2.70
2023-03-01T00:03:30.548Z,2.70
2023-03-01T00:03:53.582Z,2.70
2023-03-01T00:04:16.443Z,2.80
2023-03-01T00:04:39.199Z,2.70
2023-03-01T00:05:01.991Z,2.80
2023-03-01T00:05:26.237Z,2.80
2023-03-01T00:05:49.029Z,2.70
2023-03-01T00:06:11.763Z,2.70
2023-03-01T00:06:34.549Z,2.70
2023-03-01T00:06:57.266Z,2.70
2023-03-01T00:07:20.053Z,2.70
2023-03-01T00:07:42.800Z,2.70
2023-03-01T00:08:05.742Z,2.70
2023-03-01T00:08:28.542Z,2.80
2023-03-01T00:08:51.260Z,2.80
2023-03-01T00:09:14.082Z,2.80
2023-03-01T00:09:37.858Z,2.80
2023-03-01T00:10:00.530Z,2.80
2023-03-01T00:10:23.258Z,2.80
2023-03-01T00:10:46.036Z,2.80
2023-03-01T00:11:10.200Z,2.80
2023-03-01T00:11:34.158Z,2.90
2023-03-01T00:11:57.209Z,2.80
2023-03-01T00:12:19.899Z,2.80
2023-03-01T00:12:45.559Z,2.80
2023-03-01T00:13:08.404Z,2.70
2023-03-01T00:13:31.118Z,2.80
2023-03-01T00:13:54.643Z,2.70
2023-03-01T00:14:18.757Z,2.70
2023-03-01T00:14:41.453Z,2.60
2023-03-01T00:15:05.923Z,2.70
2023-03-01T00:15:28.716Z,2.60
2023-03-01T00:15:51.443Z,2.60
2023-03-01T00:16:15.952Z,2.60
2023-03-01T00:16:40.619Z,2.60
2023-03-01T00:17:03.651Z,2.60
2023-03-01T00:17:26.458Z,2.60
2023-03-01T00:17:49.185Z,2.50
2023-03-01T00:18:11.924Z,2.50
2023-03-01T00:18:34.667Z,2.50
2023-03-01T00:18:57.435Z,2.50
2023-03-01T00:19:20.873Z,2.50
2023-03-01T00:19:43.783Z,2.50
2023-03-01T00:20:11.377Z,2.50
2023-03-01T00:20:35.525Z,2.50
2023-03-01T00:20:58.374Z,2.50
2023-03-01T00:21:21.931Z,2.50
2023-03-01T00:21:44.641Z,2.50
2023-03-01T00:22:07.368Z,2.50
2023-03-01T00:22:30.063Z,2.50
2023-03-01T00:22:52.759Z,2.50
2023-03-01T00:23:15.459Z,2.50
2023-03-01T00:23:38.276Z,2.50
2023-03-01T00:24:01.068Z,2.50
2023-03-01T00:24:23.846Z,2.50
2023-03-01T00:24:46.728Z,2.50
2023-03-01T00:25:10.594Z,2.50
2023-03-01T00:25:33.275Z,2.50
2023-03-01T00:25:56.041Z,2.50
2023-03-01T00:26:19.148Z,2.50
2023-03-01T00:26:42.192Z,2.40
2023-03-01T00:27:04.949Z,2.50
2023-03-01T00:27:27.874Z,2.50
2023-03-01T00:27:50.795Z,2.50
2023-03-01T00:28:13.615Z,2.50
2023-03-01T00:28:36.360Z,2.50
2023-03-01T00:28:59.319Z,2.50
2023-03-01T00:29:22.191Z,2.50
2023-03-01T00:29:45.030Z,2.60
2023-03-01T00:30:09.755Z,2.50
2023-03-01T00:30:32.532Z,2.50
2023-03-01T00:30:55.337Z,2.50
2023-03-01T00:31:19.685Z,2.50
2023-03-01T00:31:42.337Z,2.60
2023-03-01T00:32:05.365Z,2.50
2023-03-01T00:32:28.082Z,2.50
2023-03-01T00:32:50.752Z,2.50
2023-03-01T00:33:13.465Z,2.50
2023-03-01T00:33:36.172Z,2.50
2023-03-01T00:34:01.388Z,2.50
2023-03-01T00:34:24.119Z,2.50
2023-03-01T00:34:55.219Z,2.50
2023-03-01T00:35:18.009Z,2.50
2023-03-01T00:35:42.290Z,2.40
2023-03-01T00:36:05.940Z,2.40
2023-03-01T00:36:30.404Z,2.40
2023-03-01T00:36:53.339Z,2.40
2023-03-01T00:37:16.007Z,2.40
2023-03-01T00:37:38.722Z,2.40
2023-03-01T00:38:01.572Z,2.40
2023-03-01T00:38:24.299Z,2.40
2023-03-01T00:38:47.145Z,2.40
2023-03-01T00:39:13.377Z,2.40
2023-03-01T00:39:36.107Z,2.40
2023-03-01T00:39:58.817Z,2.40
2023-03-01T00:40:21.604Z,2.30
2023-03-01T00:40:45.022Z,2.40
2023-03-01T00:41:07.814Z,2.30
2023-03-01T00:41:30.568Z,2.30
2023-03-01T00:41:53.263Z,2.30
2023-03-01T00:42:16.113Z,2.30
2023-03-01T00:42:39.539Z,2.30
2023-03-01T00:43:02.374Z,2.30
2023-03-01T00:43:25.075Z,2.20
2023-03-01T00:43:48.010Z,2.20
2023-03-01T00:44:10.740Z,2.20
2023-03-01T00:44:33.558Z,2.20
2023-03-01T00:44:56.284Z,2.20
2023-03-01T00:45:19.044Z,2.20
2023-03-01T00:45:41.804Z,2.20
2023-03-01T00:46:05.339Z,2.10
2023-03-01T00:46:28.312Z,2.10
2023-03-01T00:46:51.463Z,2.20
2023-03-01T00:47:15.106Z,2.10
2023-03-01T00:47:37.827Z,2.20
2023-03-01T00:48:00.802Z,2.20
2023-03-01T00:48:23.558Z,2.20
2023-03-01T00:48:46.343Z,2.20
2023-03-01T00:49:09.076Z,2.20
2023-03-01T00:49:31.969Z,2.20
2023-03-01T00:49:54.628Z,2.20
2023-03-01T00:50:17.708Z,2.20
2023-03-01T00:50:41.899Z,2.10
2023-03-01T00:51:08.759Z,2.20
2023-03-01T00:51:31.707Z,2.20
2023-03-01T00:51:54.827Z,2.10
2023-03-01T00:52:17.644Z,2.10
2023-03-01T00:52:40.908Z,2.20
2023-03-01T00:53:03.650Z,2.20
2023-03-01T00:53:26.333Z,2.20
2023-03-01T00:53:51.962Z,2.20
2023-03-01T00:54:14.635Z,2.20
2023-03-01T00:54:37.350Z,2.20
2023-03-01T00:55:00.091Z,2.30
2023-03-01T00:55:22.780Z,2.30
2023-03-01T00:55:45.570Z,2.30
2023-03-01T00:56:09.633Z,2.30
2023-03-01T00:56:32.889Z,2.30
2023-03-01T00:56:55.870Z,2.40
2023-03-01T00:57:18.610Z,2.40
2023-03-01T00:57:41.341Z,2.40
2023-03-01T00:58:04.115Z,2.40
2023-03-01T00:58:28.005Z,2.50
2023-03-01T00:58:50.859Z,2.40
2023-03-01T00:59:13.592Z,2.40
2023-03-01T00:59:36.410Z,2.40
2023-03-01T00:59:59.139Z,2.40
2023-03-01T01:00:22.419Z,2.40
2023-03-01T01:00:45.110Z,2.40
2023-03-01T01:01:18.310Z,2.40
2023-03-01T01:01:41.387Z,2.30
2023-03-01T01:02:04.056Z,2.30
2023-03-01T01:02:26.834Z,2.40
2023-03-01T01:02:50.615Z,2.30
2023-03-01T01:03:13.389Z,2.40
2023-03-01T01:03:36.184Z,2.40
2023-03-01T01:04:00.323Z,2.50
2023-03-01T01:04:23.919Z,2.50
2023-03-01T01:04:46.635Z,2.50
2023-03-01T01:05:09.707Z,2.50
2023-03-01T01:05:32.377Z,2.50
2023-03-01T01:05:56.664Z,2.50
2023-03-01T01:06:20.904Z,2.50
2023-03-01T01:06:44.656Z,2.40
2023-03-01T01:07:08.640Z,2.40
2023-03-01T01:07:31.485Z,2.40
2023-03-01T01:07:54.313Z,2.40
2023-03-01T01:08:17.090Z,2.40
2023-03-01T01:08:39.849Z,2.40
2023-03-01T01:09:02.666Z,2.40
2023-03-01T01:09:25.379Z,2.40
2023-03-01T01:09:48.125Z,2.40
2023-03-01T01:10:18.170Z,2.40
2023-03-01T01:10:40.978Z,2.40
2023-03-01T01:11:03.797Z,2.40
2023-03-01T01:11:27.743Z,2.40
2023-03-01T01:11:51.358Z,2.50
2023-03-01T01:12:14.170Z,2.40
2023-03-01T01:12:37.042Z,2.50
2023-03-01T01:12:59.729Z,2.50
2023-03-01T01:13:22.762Z,2.50
2023-03-01T01:13:46.263Z,2.50
2023-03-01T01:14:09.059Z,2.50
2023-03-01T01:14:31.872Z,2.50
2023-03-01T01:14:54.663Z,2.50
2023-03-01T01:15:17.670Z,2.60
2023-03-01T01:15:40.517Z,2.50
2023-03-01T01:16:03.535Z,2.50
2023-03-01T01:16:27.203Z,2.50
2023-03-01T01:16:50.058Z,2.60
2023-03-01T01:17:12.797Z,2.60
2023-03-01T01:17:35.523Z,2.60
2023-03-01T01:17:58.277Z,2.60
2023-03-01T01:18:21.034Z,2.60
2023-03-01T01:18:43.854Z,2.60
2023-03-01T01:19:06.703Z,2.70
2023-03-01T01:19:29.437Z,2.60
2023-03-01T01:19:53.299Z,2.60
2023-03-01T01:20:16.175Z,2.60
2023-03-01T01:20:38.923Z,2.60
2023-03-01T01:21:07.077Z,2.60
2023-03-01T01:21:32.963Z,2.60
2023-03-01T01:21:55.667Z,2.60
2023-03-01T01:22:18.404Z,2.60
2023-03-01T01:22:41.215Z,2.60
2023-03-01T01:24:25.413Z,2.70
2023-03-01T01:24:48.178Z,2.60
2023-03-01T01:25:11.768Z,2.60
2023-03-01T01:25:37.189Z,2.60
2023-03-01T01:26:05.278Z,2.60
2023-03-01T01:26:29.482Z,2.60
2023-03-01T01:26:52.650Z,2.60
2023-03-01T01:27:15.363Z,2.50
2023-03-01T01:27:38.163Z,2.50
2023-03-01T01:28:00.811Z,2.50
2023-03-01T01:28:23.517Z,2.50
2023-03-01T01:28:46.563Z,2.50
2023-03-01T01:29:09.507Z,2.50
2023-03-01T01:29:32.237Z,2.40
2023-03-01T01:29:55.034Z,2.40
2023-03-01T01:30:18.422Z,2.40
2023-03-01T01:30:41.272Z,2.40
2023-03-01T01:31:04.271Z,2.40
2023-03-01T01:31:27.183Z,2.40
2023-03-01T01:31:49.994Z,2.40
2023-03-01T01:32:12.818Z,2.40
2023-03-01T01:32:35.642Z,2.30
2023-03-01T01:32:58.366Z,2.30
2023-03-01T01:33:21.123Z,2.30
2023-03-01T01:33:43.854Z,2.30
2023-03-01T01:34:08.050Z,2.30
2023-03-01T01:34:30.863Z,2.30
2023-03-01T01:34:53.609Z,2.30
2023-03-01T01:35:16.478Z,2.30
2023-03-01T01:35:39.785Z,2.40
2023-03-01T01:36:02.495Z,2.40
2023-03-01T01:36:26.659Z,2.40
2023-03-01T01:36:49.923Z,2.40
2023-03-01T01:37:12.687Z,2.40
2023-03-01T01:37:35.496Z,2.40
2023-03-01T01:37:58.242Z,2.40
2023-03-01T01:38:22.596Z,2.40
2023-03-01T01:38:45.441Z,2.40
2023-03-01T01:39:08.457Z,2.40
2023-03-01T01:39:31.243Z,2.50
2023-03-01T01:39:53.927Z,2.50
2023-03-01T01:40:16.782Z,2.50
2023-03-01T01:40:44.967Z,2.50
2023-03-01T01:41:07.993Z,2.50
2023-03-01T01:41:30.712Z,2.60
2023-03-01T01:41:53.441Z,2.60
2023-03-01T01:42:16.867Z,2.60
2023-03-01T01:42:39.567Z,2.60
2023-03-01T01:43:02.258Z,2.60
2023-03-01T01:43:26.556Z,2.60
2023-03-01T01:44:06.587Z,2.60
2023-03-01T01:44:29.645Z,2.60
2023-03-01T01:45:25.647Z,2.60
2023-03-01T01:45:48.739Z,2.60
2023-03-01T01:46:17.296Z,2.50
2023-03-01T01:46:43.002Z,2.60
2023-03-01T01:47:06.566Z,2.50
2023-03-01T01:47:29.350Z,2.80
2023-03-01T01:47:52.207Z,2.60
2023-03-01T01:48:17.607Z,2.60
2023-03-01T01:48:42.780Z,2.50
2023-03-01T01:49:06.924Z,2.60
2023-03-01T01:49:34.794Z,2.50
2023-03-01T01:49:58.543Z,2.60
2023-03-01T01:50:21.412Z,2.60
2023-03-01T01:50:46.097Z,2.60
2023-03-01T01:51:12.161Z,2.60
2023-03-01T01:51:41.998Z,2.60
2023-03-01T01:52:09.912Z,2.60
2023-03-01T01:52:35.207Z,2.50
2023-03-01T01:52:57.937Z,2.60
2023-03-01T01:53:20.586Z,2.60
2023-03-01T01:53:43.366Z,2.60
2023-03-01T01:54:09.332Z,2.60
2023-03-01T01:54:36.531Z,2.60
2023-03-01T01:55:01.314Z,2.50
2023-03-01T01:55:25.151Z,2.60
2023-03-01T01:55:50.521Z,2.50
2023-03-01T01:56:13.358Z,2.50
2023-03-01T01:56:36.053Z,2.50
2023-03-01T01:57:01.616Z,2.50
2023-03-01T01:57:29.111Z,2.50
2023-03-01T01:57:54.201Z,2.50
2023-03-01T01:58:19.301Z,2.50
2023-03-01T01:58:42.091Z,2.50
2023-03-01T01:59:04.800Z,2.50
2023-03-01T01:59:27.914Z,2.50
2023-03-01T01:59:52.307Z,2.50
2023-03-01T02:00:16.761Z,2.50
2023-03-01T02:00:40.190Z,2.50
2023-03-01T02:01:04.171Z,2.40
2023-03-01T02:01:27.278Z,2.40
2023-03-01T02:01:49.991Z,2.40
2023-03-01T02:02:12.776Z,2.40
2023-03-01T02:02:35.601Z,2.40
2023-03-01T02:03:01.471Z,2.40
2023-03-01T02:03:25.842Z,2.40
2023-03-01T02:03:49.001Z,2.40
2023-03-01T02:04:11.756Z,2.40
2023-03-01T02:04:34.655Z,2.30
2023-03-01T02:05:04.790Z,2.30
2023-03-01T02:05:29.971Z,2.40
2023-03-01T02:05:55.766Z,2.30
2023-03-01T02:06:22.739Z,2.30
2023-03-01T02:06:49.371Z,2.40
2023-03-01T02:07:16.173Z,2.30
2023-03-01T02:07:39.351Z,2.30
2023-03-01T02:08:02.091Z,2.20
2023-03-01T02:08:26.550Z,2.30
2023-03-01T02:08:50.092Z,2.30
2023-03-01T02:09:14.568Z,2.30
2023-03-01T02:09:37.346Z,2.30
2023-03-01T02:10:00.087Z,2.30
2023-03-01T02:10:22.891Z,2.30
2023-03-01T02:10:45.636Z,2.30
2023-03-01T02:11:08.487Z,2.40
2023-03-01T02:11:31.446Z,2.40
2023-03-01T02:11:54.251Z,2.30
2023-03-01T02:12:19.213Z,2.30
2023-03-01T02:12:42.075Z,2.30
2023-03-01T02:13:04.858Z,2.30
2023-03-01T02:13:27.614Z,2.30
2023-03-01T02:13:50.388Z,2.30
2023-03-01T02:14:13.147Z,2.30
2023-03-01T02:14:36.126Z,2.30
2023-03-01T02:14:58.926Z,2.30
2023-03-01T02:15:21.725Z,2.30
2023-03-01T02:15:47.306Z,2.30
2023-03-01T02:16:10.800Z,2.30
2023-03-01T02:16:34.053Z,2.40
2023-03-01T02:16:57.126Z,2.40
2023-03-01T02:17:19.837Z,2.40
2023-03-01T02:17:42.652Z,2.40
2023-03-01T02:18:05.366Z,2.30
2023-03-01T02:18:28.289Z,2.30
2023-03-01T02:18:51.036Z,2.30
2023-03-01T02:19:18.070Z,2.30
2023-03-01T02:19:47.866Z,2.30
2023-03-01T02:20:16.983Z,2.30
2023-03-01T02:20:44.787Z,2.30
2023-03-01T02:21:32.177Z,2.30
2023-03-01T02:21:59.428Z,2.30
2023-03-01T02:22:24.470Z,2.30
2023-03-01T02:22:47.288Z,2.30
2023-03-01T02:23:10.054Z,2.30
2023-03-01T02:23:32.820Z,2.30
2023-03-01T02:23:56.981Z,2.30
2023-03-01T02:24:24.761Z,2.30
2023-03-01T02:24:51.363Z,2.30
2023-03-01T02:25:24.560Z,2.30
2023-03-01T02:25:50.447Z,2.20
2023-03-01T02:26:16.623Z,2.20
2023-03-01T02:26:42.748Z,2.20
2023-03-01T02:27:05.526Z,2.20
2023-03-01T02:27:32.168Z,2.20
2023-03-01T02:27:58.581Z,2.20
2023-03-01T02:28:26.777Z,2.20
2023-03-01T02:28:49.510Z,2.20
2023-03-01T02:29:12.289Z,2.20
2023-03-01T02:29:35.054Z,2.20
2023-03-01T02:29:57.887Z,2.20
2023-03-01T02:30:20.908Z,2.20
2023-03-01T02:31:03.757Z,2.20
2023-03-01T02:31:45.006Z,2.20
2023-03-01T02:32:07.843Z,2.30
2023-03-01T02:32:30.607Z,2.30
2023-03-01T02:32:54.514Z,2.30
2023-03-01T02:33:17.293Z,2.20
2023-03-01T02:33:40.058Z,2.30
2023-03-01T02:34:05.656Z,2.20
2023-03-01T02:34:28.461Z,2.20
2023-03-01T02:34:51.327Z,2.20
2023-03-01T02:35:15.587Z,2.20
2023-03-01T02:35:39.354Z,2.30
2023-03-01T02:36:02.725Z,2.20
2023-03-01T02:36:27.932Z,2.30
2023-03-01T02:36:52.527Z,2.30
2023-03-01T02:37:16.036Z,2.20
2023-03-01T02:37:39.002Z,2.30
2023-03-01T02:38:02.514Z,2.20
2023-03-01T02:38:25.245Z,2.20
2023-03-01T02:38:48.322Z,2.20
2023-03-01T02:39:15.479Z,2.20
2023-03-01T02:39:43.026Z,2.20
2023-03-01T02:40:12.652Z,2.20
2023-03-01T02:40:35.362Z,2.20
2023-03-01T02:40:58.216Z,2.20
2023-03-01T02:41:21.122Z,2.20
2023-03-01T02:41:45.781Z,2.30
2023-03-01T02:42:08.580Z,2.30
2023-03-01T02:42:34.442Z,2.30
2023-03-01T02:42:59.418Z,2.30
2023-03-01T02:43:22.352Z,2.30
2023-03-01T02:43:46.653Z,2.30
2023-03-01T02:44:09.611Z,2.30
2023-03-01T02:44:32.411Z,2.30
2023-03-01T02:44:55.153Z,2.30
2023-03-01T02:45:17.982Z,2.30
2023-03-01T02:45:48.955Z,2.30
2023-03-01T02:46:16.264Z,2.30
2023-03-01T02:46:44.377Z,2.40
2023-03-01T02:47:07.295Z,2.40
2023-03-01T02:47:31.037Z,2.30
2023-03-01T02:47:55.459Z,2.30
2023-03-01T02:48:18.297Z,2.30
2023-03-01T02:48:42.801Z,2.30
2023-03-01T02:49:19.685Z,2.30
2023-03-01T02:49:42.493Z,2.30
2023-03-01T02:50:12.642Z,2.40
2023-03-01T02:50:55.527Z,2.30
2023-03-01T02:51:29.132Z,2.40
2023-03-01T02:52:05.602Z,2.40
2023-03-01T02:52:46.302Z,2.40
2023-03-01T02:53:10.746Z,2.40
2023-03-01T02:53:39.240Z,2.40
2023-03-01T02:54:11.817Z,2.40
2023-03-01T02:54:37.758Z,2.40
2023-03-01T02:55:02.111Z,2.50
2023-03-01T02:55:24.999Z,2.40
2023-03-01T02:55:47.680Z,2.50
2023-03-01T02:56:13.973Z,2.50
2023-03-01T02:56:36.832Z,2.50
2023-03-01T02:56:59.606Z,2.50
2023-03-01T02:57:23.066Z,2.50
2023-03-01T02:57:46.578Z,2.60
2023-03-01T02:58:09.287Z,2.50
2023-03-01T02:58:32.128Z,2.50
2023-03-01T02:58:56.328Z,2.50
2023-03-01T02:59:20.803Z,2.50
2023-03-01T02:59:43.884Z,2.50
2023-03-01T03:00:08.480Z,2.50
2023-03-01T03:00:34.332Z,2.50
2023-03-01T03:00:57.087Z,2.50
2023-03-01T03:01:19.918Z,2.50
2023-03-01T03:01:43.051Z,2.50
2023-03-01T03:02:05.867Z,2.60
2023-03-01T03:02:39.664Z,2.60
2023-03-01T03:03:02.565Z,2.60
2023-03-01T03:03:25.354Z,2.60
2023-03-01T03:03:48.195Z,2.60
2023-03-01T03:04:12.539Z,2.60
2023-03-01T03:04:35.358Z,2.60
2023-03-01T03:04:58.104Z,2.60
2023-03-01T03:05:21.927Z,2.60
2023-03-01T03:05:44.643Z,2.60
2023-03-01T03:06:07.525Z,2.60
2023-03-01T03:06:30.831Z,2.60
2023-03-01T03:06:53.968Z,2.60
2023-03-01T03:07:16.888Z,2.60
2023-03-01T03:07:41.203Z,2.50
2023-03-01T03:08:04.479Z,2.60
2023-03-01T03:08:27.746Z,2.60
2023-03-01T03:08:50.619Z,2.60
2023-03-01T03:09:15.844Z,2.60
2023-03-01T03:09:39.433Z,2.60
2023-03-01T03:10:02.261Z,2.60
2023-03-01T03:10:26.284Z,2.60
2023-03-01T03:10:51.904Z,2.60
2023-03-01T03:11:14.525Z,2.70
2023-03-01T03:11:37.994Z,2.70
2023-03-01T03:12:00.808Z,2.70
2023-03-01T03:12:26.100Z,2.70
2023-03-01T03:12:52.908Z,2.70
2023-03-01T03:13:15.800Z,2.70
2023-03-01T03:13:39.382Z,2.60
2023-03-01T03:14:03.609Z,2.60
2023-03-01T03:14:26.364Z,2.60
2023-03-01T03:14:49.109Z,2.60
2023-03-01T03:15:13.934Z,2.60
2023-03-01T03:15:37.160Z,2.60
2023-03-01T03:16:00.055Z,2.60
2023-03-01T03:16:22.938Z,2.60
2023-03-01T03:16:46.729Z,2.60
2023-03-01T03:17:09.599Z,2.60
2023-03-01T03:17:32.329Z,2.60
2023-03-01T03:17:55.288Z,2.60
2023-03-01T03:18:18.179Z,2.60
2023-03-01T03:18:40.864Z,2.60
2023-03-01T03:19:06.071Z,2.60
2023-03-01T03:19:29.082Z,2.60
2023-03-01T03:19:51.878Z,2.60
2023-03-01T03:20:20.279Z,2.60
2023-03-01T03:20:43.775Z,2.60
2023-03-01T03:21:11.420Z,2.60
2023-03-01T03:21:34.248Z,2.60
2023-03-01T03:21:57.003Z,2.60
2023-03-01T03:22:19.703Z,2.60
2023-03-01T03:22:42.400Z,2.60
2023-03-01T03:23:05.182Z,2.60
2023-03-01T03:23:28.005Z,2.60
2023-03-01T03:23:50.791Z,2.60
2023-03-01T03:24:13.624Z,2.70
2023-03-01T03:24:39.458Z,2.70
2023-03-01T03:25:02.333Z,2.70
2023-03-01T03:25:25.890Z,2.70
2023-03-01T03:25:49.895Z,2.70
2023-03-01T03:26:14.420Z,2.70
2023-03-01T03:26:37.196Z,2.70
2023-03-01T03:26:59.937Z,2.70
2023-03-01T03:27:22.613Z,2.70
2023-03-01T03:27:46.404Z,2.70
2023-03-01T03:28:12.056Z,2.70
2023-03-01T03:28:35.168Z,2.70
2023-03-01T03:28:58.213Z,2.70
2023-03-01T03:29:22.457Z,2.70
2023-03-01T03:29:45.131Z,2.80
2023-03-01T03:30:10.575Z,2.80
2023-03-01T03:30:33.320Z,2.80
2023-03-01T03:30:56.079Z,2.80
2023-03-01T03:31:18.920Z,2.80
2023-03-01T03:31:41.732Z,2.90
2023-03-01T03:32:04.989Z,3.00
2023-03-01T03:32:28.035Z,3.00
2023-03-01T03:32:53.578Z,3.00
2023-03-01T03:33:16.331Z,3.00
2023-03-01T03:33:39.386Z,3.00
2023-03-01T03:34:02.094Z,3.00
2023-03-01T03:34:24.826Z,3.00
2023-03-01T03:34:47.492Z,3.00
2023-03-01T03:35:11.156Z,3.00
2023-03-01T03:35:34.931Z,3.00
2023-03-01T03:35:57.720Z,3.00
2023-03-01T03:36:24.177Z,3.00
2023-03-01T03:36:46.919Z,3.00
2023-03-01T03:37:29.646Z,3.00
2023-03-01T03:38:04.623Z,3.00
2023-03-01T03:38:27.468Z,3.00
2023-03-01T03:38:50.241Z,3.00
2023-03-01T03:39:13.092Z,3.00
2023-03-01T03:39:35.938Z,3.00
2023-03-01T03:39:58.835Z,3.00
2023-03-01T03:40:21.614Z,2.90
2023-03-01T03:40:46.140Z,2.90
2023-03-01T03:41:09.302Z,2.90
2023-03-01T03:41:32.072Z,2.90
2023-03-01T03:41:54.826Z,2.90
2023-03-01T03:42:17.517Z,2.80
2023-03-01T03:42:40.235Z,2.80
2023-03-01T03:43:03.083Z,2.80
2023-03-01T03:43:25.922Z,2.80
2023-03-01T03:43:50.096Z,2.80
2023-03-01T03:44:13.660Z,2.80
2023-03-01T03:44:38.638Z,2.70
2023-03-01T03:45:01.355Z,2.70
2023-03-01T03:45:24.022Z,2.70
2023-03-01T03:45:47.246Z,2.80
2023-03-01T03:46:10.506Z,2.70
2023-03-01T03:46:33.999Z,2.80
2023-03-01T03:46:56.940Z,2.70
2023-03-01T03:47:19.682Z,2.70
2023-03-01T03:47:42.479Z,2.80
2023-03-01T03:48:06.504Z,2.80
2023-03-01T03:48:29.323Z,2.80
2023-03-01T03:48:52.166Z,2.80
2023-03-01T03:49:14.898Z,2.80
2023-03-01T03:49:37.650Z,2.80
2023-03-01T03:50:00.445Z,2.80
2023-03-01T03:50:23.292Z,2.80
2023-03-01T03:50:49.304Z,2.80
2023-03-01T03:51:12.484Z,2.80
2023-03-01T03:51:35.206Z,2.80
2023-03-01T03:51:58.577Z,2.80
2023-03-01T03:52:21.330Z,2.90
2023-03-01T03:52:44.130Z,2.90
2023-03-01T03:53:08.227Z,2.90
2023-03-01T03:53:31.052Z,2.90
2023-03-01T03:53:53.776Z,2.90
2023-03-01T03:54:16.558Z,2.80
2023-03-01T03:54:39.451Z,2.90
2023-03-01T03:55:02.171Z,2.80
2023-03-01T03:55:29.168Z,2.80
2023-03-01T03:55:54.525Z,2.80
2023-03-01T03:56:17.176Z,2.80
2023-03-01T03:56:40.119Z,2.80
2023-03-01T03:57:04.769Z,2.80
2023-03-01T03:57:27.517Z,2.80
2023-03-01T03:57:55.381Z,2.80
2023-03-01T03:58:20.744Z,2.80
2023-03-01T03:58:43.667Z,2.80
2023-03-01T03:59:07.021Z,2.80
2023-03-01T03:59:29.921Z,2.80
2023-03-01T03:59:56.869Z,2.80
2023-03-01T04:00:20.520Z,2.80
2023-03-01T04:00:44.236Z,2.80
2023-03-01T04:01:07.073Z,2.80
2023-03-01T04:01:29.783Z,2.80
2023-03-01T04:01:52.753Z,2.80
2023-03-01T04:02:23.664Z,2.80
2023-03-01T04:02:46.649Z,2.80
2023-03-01T04:03:09.594Z,2.80
2023-03-01T04:03:33.286Z,2.80
2023-03-01T04:03:56.383Z,2.70
2023-03-01T04:04:20.023Z,2.80
2023-03-01T04:04:42.817Z,2.70
2023-03-01T04:05:06.617Z,2.70
2023-03-01T04:05:29.853Z,2.70
2023-03-01T04:05:52.629Z,2.80
2023-03-01T04:06:15.497Z,2.70
2023-03-01T04:06:38.441Z,2.80
2023-03-01T04:07:01.283Z,2.80
2023-03-01T04:07:24.066Z,2.80
2023-03-01T04:07:46.963Z,2.80
2023-03-01T04:08:12.329Z,2.80
2023-03-01T04:08:35.184Z,2.80
2023-03-01T04:08:59.387Z,2.80
2023-03-01T04:09:22.095Z,2.80
2023-03-01T04:09:44.858Z,2.80
2023-03-01T04:10:10.080Z,2.80
2023-03-01T04:10:34.621Z,2.80
2023-03-01T04:11:01.927Z,2.80
2023-03-01T04:11:27.565Z,2.80
2023-03-01T04:11:50.288Z,2.80
2023-03-01T04:12:14.097Z,2.80
2023-03-01T04:12:37.311Z,2.70
2023-03-01T04:13:00.015Z,2.80
2023-03-01T04:13:23.442Z,2.70
2023-03-01T04:13:46.177Z,2.70
2023-03-01T04:14:08.829Z,2.70
2023-03-01T04:14:31.682Z,2.70
2023-03-01T04:14:54.410Z,2.70
2023-03-01T04:15:18.825Z,2.70
2023-03-01T04:15:41.626Z,2.70
2023-03-01T04:16:04.778Z,2.70
2023-03-01T04:16:27.770Z,2.70
2023-03-01T04:16:50.613Z,2.70
2023-03-01T04:17:13.783Z,2.70
2023-03-01T04:17:36.570Z,2.70
2023-03-01T04:18:00.184Z,2.70
2023-03-01T04:18:23.867Z,2.70
2023-03-01T04:18:46.761Z,2.70
2023-03-01T04:19:10.901Z,2.70
2023-03-01T04:19:37.226Z,2.70
2023-03-01T04:20:00.017Z,2.70
2023-03-01T04:20:26.770Z,2.70
2023-03-01T04:20:49.507Z,2.70
2023-03-01T04:21:12.495Z,2.70
2023-03-01T04:21:35.207Z,2.70
2023-03-01T04:21:57.916Z,2.60
2023-03-01T04:22:20.887Z,2.60
2023-03-01T04:22:43.650Z,2.60
2023-03-01T04:23:14.732Z,2.60
2023-03-01T04:23:37.462Z,2.60
2023-03-01T04:24:00.173Z,2.60
2023-03-01T04:24:24.067Z,2.60
2023-03-01T04:24:46.846Z,2.60
2023-03-01T04:25:10.314Z,2.60
2023-03-01T04:25:33.027Z,2.60
2023-03-01T04:25:56.937Z,2.60
2023-03-01T04:26:20.346Z,2.70
2023-03-01T04:26:43.113Z,2.70
2023-03-01T04:27:05.796Z,2.70
2023-03-01T04:27:28.551Z,2.70
2023-03-01T04:27:51.304Z,2.80
2023-03-01T04:28:14.037Z,2.70
2023-03-01T04:28:38.174Z,2.70
2023-03-01T04:29:00.962Z,2.70
2023-03-01T04:29:23.745Z,2.70
2023-03-01T04:29:46.401Z,2.70
2023-03-01T04:30:11.326Z,2.70
2023-03-01T04:30:38.248Z,2.70
2023-03-01T04:31:14.078Z,2.70
2023-03-01T04:31:37.227Z,2.70
2023-03-01T04:32:00.296Z,2.70
2023-03-01T04:32:23.255Z,2.70
2023-03-01T04:32:46.096Z,2.60
2023-03-01T04:33:10.087Z,2.70
2023-03-01T04:33:32.794Z,2.70
2023-03-01T04:33:56.488Z,2.70
2023-03-01T04:34:19.248Z,2.70
2023-03-01T04:34:41.937Z,2.70
2023-03-01T04:35:05.783Z,2.70
2023-03-01T04:35:28.977Z,2.70
2023-03-01T04:35:51.987Z,2.70
2023-03-01T04:36:16.257Z,2.70
2023-03-01T04:36:41.214Z,2.60
2023-03-01T04:37:03.960Z,2.70
2023-03-01T04:37:26.746Z,2.70
2023-03-01T04:37:49.446Z,2.70
2023-03-01T04:38:12.246Z,2.70
2023-03-01T04:38:35.047Z,2.70
2023-03-01T04:38:57.771Z,2.60
2023-03-01T04:39:20.487Z,2.60
2023-03-01T04:39:46.742Z,2.60
2023-03-01T04:40:17.510Z,2.60
2023-03-01T04:40:40.215Z,2.60
2023-03-01T04:41:04.562Z,2.60
2023-03-01T04:41:27.455Z,2.60
2023-03-01T04:41:50.197Z,2.60
2023-03-01T04:42:12.919Z,2.70
2023-03-01T04:42:35.678Z,2.70
2023-03-01T04:42:58.553Z,2.70
2023-03-01T04:43:21.442Z,2.70
2023-03-01T04:43:44.165Z,2.70
2023-03-01T04:44:06.942Z,2.70
2023-03-01T04:44:29.722Z,2.70
2023-03-01T04:44:52.420Z,2.70
2023-03-01T04:45:15.267Z,2.70
2023-03-01T04:45:39.445Z,2.70
2023-03-01T04:46:04.073Z,2.70
2023-03-01T04:46:27.560Z,2.70
2023-03-01T04:46:51.298Z,2.70
2023-03-01T04:47:14.084Z,2.70
2023-03-01T04:47:39.332Z,2.70
2023-03-01T04:48:02.184Z,2.70
2023-03-01T04:48:24.868Z,2.70
2023-03-01T04:48:50.406Z,2.70
2023-03-01T04:49:13.786Z,2.70
2023-03-01T04:49:36.527Z,2.70
2023-03-01T04:49:59.244Z,2.80
2023-03-01T04:50:22.786Z,2.80
2023-03-01T04:50:46.560Z,2.80
2023-03-01T04:51:09.939Z,2.90
2023-03-01T04:51:33.692Z,2.90
2023-03-01T04:51:57.308Z,2.90
2023-03-01T04:52:20.146Z,2.90
2023-03-01T04:52:43.076Z,2.90
2023-03-01T04:53:06.087Z,2.90
2023-03-01T04:53:29.047Z,2.90
2023-03-01T04:53:51.831Z,2.90
2023-03-01T04:54:14.544Z,2.90
2023-03-01T04:54:37.358Z,2.80
2023-03-01T04:55:00.132Z,2.80
2023-03-01T04:55:22.959Z,2.80
2023-03-01T04:55:45.732Z,2.80
2023-03-01T04:56:08.514Z,2.80
2023-03-01T04:56:32.231Z,2.80
2023-03-01T04:56:55.289Z,2.80
2023-03-01T04:57:18.588Z,2.80
2023-03-01T04:57:41.317Z,2.70
2023-03-01T04:58:04.090Z,2.80
2023-03-01T04:58:27.506Z,2.70
2023-03-01T04:58:50.244Z,2.80
2023-03-01T04:59:13.706Z,2.80
2023-03-01T04:59:37.241Z,2.80
2023-03-01T04:59:59.941Z,2.70
2023-03-01T05:00:23.521Z,2.80
2023-03-01T05:00:47.745Z,2.80
2023-03-01T05:01:16.277Z,2.80
2023-03-01T05:01:39.713Z,2.70
2023-03-01T05:02:02.483Z,2.70
2023-03-01T05:02:27.978Z,2.70
2023-03-01T05:02:54.469Z,2.70
2023-03-01T05:03:19.548Z,2.70
2023-03-01T05:03:44.176Z,2.70
2023-03-01T05:04:06.985Z,2.70
2023-03-01T05:04:29.703Z,2.70
2023-03-01T05:04:53.001Z,2.80
2023-03-01T05:05:15.909Z,2.70
2023-03-01T05:05:39.681Z,2.80
2023-03-01T05:06:02.415Z,2.70
2023-03-01T05:06:25.223Z,2.80
2023-03-01T05:06:48.123Z,2.80
2023-03-01T05:07:10.879Z,2.80
2023-03-01T05:07:33.624Z,2.80
2023-03-01T05:07:57.812Z,2.80
2023-03-01T05:08:21.793Z,2.80
2023-03-01T05:08:44.587Z,2.80
2023-03-01T05:09:07.313Z,2.80
2023-03-01T05:09:30.092Z,2.70
2023-03-01T05:09:55.029Z,2.70
2023-03-01T05:10:18.342Z,2.70
2023-03-01T05:10:42.092Z,2.70
2023-03-01T05:11:05.087Z,2.70
2023-03-01T05:11:29.124Z,2.70
2023-03-01T05:11:52.774Z,2.70
2023-03-01T05:12:16.089Z,2.70
2023-03-01T05:12:38.827Z,2.70
2023-03-01T05:13:01.973Z,2.70
2023-03-01T05:13:24.659Z,2.70
2023-03-01T05:13:47.687Z,2.70
2023-03-01T05:14:10.578Z,2.70
2023-03-01T05:14:33.322Z,2.70
2023-03-01T05:14:56.131Z,2.70
2023-03-01T05:15:18.929Z,2.70
2023-03-01T05:15:41.706Z,2.70
2023-03-01T05:16:12.768Z,2.70
2023-03-01T05:16:37.644Z,2.70
2023-03-01T05:17:05.177Z,2.80
2023-03-01T05:17:27.985Z,2.70
2023-03-01T05:17:50.819Z,2.80
2023-03-01T05:18:13.602Z,2.70
2023-03-01T05:18:36.377Z,2.70
2023-03-01T05:18:59.512Z,2.70
2023-03-01T05:19:23.974Z,2.80
2023-03-01T05:19:47.452Z,2.80
2023-03-01T05:20:12.647Z,2.80